createdAt,value
2018-11-28T00:03:29.225Z,-1.89
2018-11-28T00:08:33.832Z,-1.57
2018-11-28T00:13:38.536Z,-1.77
2018-11-28T00:18:43.184Z,-1.81
2018-11-28T00:24:06.458Z,-1.69
2018-11-28T00:29:11.069Z,-2.37
2018-11-28T00:34:15.649Z,-2.04
2018-11-28T00:39:38.883Z,-1.99
2018-11-28T00:45:02.181Z,-1.82
2018-11-28T00:50:26.382Z,-1.86
2018-11-28T00:55:31.026Z,-1.90
2018-11-28T01:00:35.487Z,-2.02
2018-11-28T01:05:40.158Z,-1.99
2018-11-28T01:10:44.707Z,-2.03
2018-11-28T01:15:49.262Z,-1.97
2018-11-28T01:20:53.817Z,-2.05
2018-11-28T01:26:17.081Z,-2.17
2018-11-28T01:31:21.633Z,-2.21
2018-11-28T01:36:26.229Z,-2.17
2018-11-28T01:41:30.781Z,-2.26
2018-11-28T01:46:35.312Z,-2.17
2018-11-28T01:51:39.972Z,-2.17
2018-11-28T01:56:44.524Z,-2.25
2018-11-28T02:01:49.024Z,-2.37
2018-11-28T02:06:53.611Z,-2.32
2018-11-28T02:11:58.180Z,-2.07
2018-11-28T02:17:02.759Z,-2.15
2018-11-28T02:22:07.329Z,-2.25
2018-11-28T02:27:11.889Z,-2.29
2018-11-28T02:32:16.424Z,-2.35
2018-11-28T02:37:20.948Z,-2.52
2018-11-28T02:42:25.489Z,-2.41
2018-11-28T02:47:30.051Z,-2.39
2018-11-28T02:52:34.638Z,-2.50
2018-11-28T02:57:39.265Z,-2.54
2018-11-28T03:02:43.789Z,-2.47
2018-11-28T03:07:48.344Z,-2.50
2018-11-28T03:13:11.559Z,-2.54
2018-11-28T03:18:16.188Z,-2.60
2018-11-28T03:23:20.824Z,-2.60
2018-11-28T03:28:25.398Z,-2.48
2018-11-28T03:33:30.009Z,-2.53
2018-11-28T03:38:34.639Z,-2.46
2018-11-28T03:43:39.208Z,-2.61
2018-11-28T03:48:43.770Z,-2.55
2018-11-28T03:53:48.575Z,-2.56
2018-11-28T03:58:53.583Z,-2.62
2018-11-28T04:03:58.032Z,-2.62
2018-11-28T04:09:02.658Z,-2.69
2018-11-28T04:14:07.229Z,-2.74
2018-11-28T04:19:11.757Z,-2.88
2018-11-28T04:24:16.296Z,-2.82
2018-11-28T04:29:20.907Z,-3.08
2018-11-28T04:34:25.456Z,-3.09
2018-11-28T04:39:30.024Z,-2.71
2018-11-28T04:44:34.693Z,-2.78
2018-11-28T04:49:39.269Z,-2.85
2018-11-28T04:54:43.815Z,-2.86
2018-11-28T05:00:07.069Z,-2.82
2018-11-28T05:05:12.212Z,-2.96
2018-11-28T05:10:35.743Z,-2.75
2018-11-28T05:15:40.288Z,-3.08
2018-11-28T05:21:04.000Z,-2.69
2018-11-28T05:26:08.558Z,-3.09
2018-11-28T05:31:13.126Z,-3.11
2018-11-28T05:36:17.706Z,-3.12
2018-11-28T05:41:22.291Z,-3.03
2018-11-28T05:46:26.908Z,-2.91
2018-11-28T05:51:31.378Z,-2.82
2018-11-28T05:56:35.924Z,-3.01
2018-11-28T06:01:40.470Z,-3.01
2018-11-28T06:07:03.980Z,-3.14
2018-11-28T06:12:08.541Z,-3.12
2018-11-28T06:17:13.207Z,-3.16
2018-11-28T06:22:17.817Z,-3.23
2018-11-28T06:27:22.471Z,-3.10
2018-11-28T06:32:27.077Z,-3.35
2018-11-28T06:37:31.643Z,-3.11
2018-11-28T06:42:55.195Z,-3.19
2018-11-28T06:47:59.814Z,-3.07
2018-11-28T06:53:04.526Z,-2.98
2018-11-28T06:58:28.033Z,-2.97
2018-11-28T07:03:32.584Z,-2.94
2018-11-28T07:08:37.116Z,-3.15
2018-11-28T07:13:41.699Z,-3.07
2018-11-28T07:19:07.495Z,-2.84
2018-11-28T07:24:31.265Z,-2.98
2018-11-28T07:29:54.878Z,-2.81
2018-11-28T07:34:59.448Z,-2.87
2018-11-28T07:40:04.194Z,-3.22
2018-11-28T07:45:11.468Z,-2.95
2018-11-28T07:50:16.242Z,-2.81
2018-11-28T07:55:20.927Z,-3.19
2018-11-28T08:00:25.576Z,-2.87
2018-11-28T08:05:30.139Z,-2.66
2018-11-28T08:10:34.820Z,-2.68
2018-11-28T08:15:39.480Z,-2.44
2018-11-28T08:20:44.042Z,-2.66
2018-11-28T08:25:48.576Z,-2.53
2018-11-28T08:30:53.235Z,-2.47
2018-11-28T08:35:57.939Z,-2.32
2018-11-28T08:41:02.719Z,-2.19
2018-11-28T08:46:07.764Z,-2.19
2018-11-28T08:51:12.368Z,-1.89
2018-11-28T08:56:17.011Z,-1.91
2018-11-28T09:01:21.531Z,-1.85
2018-11-28T09:06:44.793Z,-1.60
2018-11-28T09:12:08.366Z,-1.59
2018-11-28T09:17:31.966Z,-1.44
2018-11-28T09:22:36.526Z,-1.32
2018-11-28T09:27:41.278Z,-1.24
2018-11-28T09:32:46.112Z,-1.15
2018-11-28T09:37:50.811Z,-0.99
2018-11-28T09:43:14.818Z,-0.81
2018-11-28T09:48:19.395Z,-0.75
2018-11-28T09:53:23.963Z,-0.54
2018-11-28T09:58:28.541Z,-0.34
2018-11-28T10:03:33.179Z,-0.17
2018-11-28T10:08:37.819Z,0.05
2018-11-28T10:14:01.047Z,0.41
2018-11-28T10:19:05.640Z,0.71
2018-11-28T10:24:10.264Z,0.73
2018-11-28T10:29:14.974Z,0.98
2018-11-28T10:34:19.739Z,1.17
2018-11-28T10:39:24.300Z,1.23
2018-11-28T10:44:28.888Z,1.37
2018-11-28T10:49:33.488Z,1.52
2018-11-28T10:54:37.961Z,1.50
2018-11-28T10:59:42.502Z,1.73
2018-11-28T11:05:05.813Z,1.66
2018-11-28T11:10:29.074Z,1.86
2018-11-28T11:15:33.750Z,1.80
2018-11-28T11:20:38.355Z,1.92
2018-11-28T11:25:42.916Z,1.95
2018-11-28T11:30:47.575Z,2.04
2018-11-28T11:36:11.064Z,2.15
2018-11-28T11:41:15.682Z,2.22
2018-11-28T11:46:20.262Z,2.17
2018-11-28T11:51:24.913Z,2.13
2018-11-28T11:56:29.454Z,2.25
2018-11-28T12:01:34.116Z,2.30
2018-11-28T12:06:38.720Z,2.30
2018-11-28T12:11:43.327Z,2.36
2018-11-28T12:16:47.815Z,2.55
2018-11-28T12:21:52.357Z,2.53
2018-11-28T12:26:56.917Z,2.51
2018-11-28T12:32:01.501Z,2.69
2018-11-28T12:37:06.369Z,2.70
2018-11-28T12:42:10.975Z,2.60
2018-11-28T12:47:15.815Z,2.67
2018-11-28T12:52:20.416Z,2.64
2018-11-28T12:57:24.987Z,2.70
2018-11-28T13:02:29.689Z,2.73
2018-11-28T13:07:34.291Z,2.69
2018-11-28T13:12:38.780Z,2.71
2018-11-28T13:17:43.360Z,2.64
2018-11-28T13:22:49.089Z,2.67
2018-11-28T13:27:53.706Z,2.70
2018-11-28T13:32:58.279Z,2.62
2018-11-28T13:38:04.318Z,2.57
2018-11-28T13:43:09.011Z,2.57
2018-11-28T13:48:13.802Z,2.47
2018-11-28T13:53:37.915Z,2.50
2018-11-28T13:58:42.456Z,2.47
2018-11-28T14:09:10.655Z,2.40
2018-11-28T14:14:15.303Z,2.36
2018-11-28T14:19:19.804Z,2.34
2018-11-28T14:24:24.376Z,2.37
2018-11-28T14:29:29.004Z,2.22
2018-11-28T14:34:33.620Z,2.28
2018-11-28T14:39:38.287Z,2.24
2018-11-28T14:44:42.756Z,2.20
2018-11-28T14:49:47.310Z,2.22
2018-11-28T14:54:51.893Z,2.06
2018-11-28T14:59:56.545Z,2.08
2018-11-28T15:05:01.053Z,2.01
2018-11-28T15:10:05.716Z,2.02
2018-11-28T15:15:28.969Z,1.98
2018-11-28T15:20:33.567Z,1.92
2018-11-28T15:25:38.112Z,1.83
2018-11-28T15:30:42.829Z,1.80
2018-11-28T15:35:47.436Z,1.76
2018-11-28T15:40:52.253Z,1.79
2018-11-28T15:45:56.899Z,1.76
2018-11-28T15:56:11.679Z,1.70
2018-11-28T16:01:16.272Z,1.58
2018-11-28T16:06:20.822Z,1.57
2018-11-28T16:11:25.788Z,1.70
2018-11-28T16:16:30.392Z,1.50
2018-11-28T16:21:35.001Z,1.49
2018-11-28T16:26:39.544Z,1.45
2018-11-28T16:31:44.111Z,1.43
2018-11-28T16:36:48.724Z,1.40
2018-11-28T16:41:53.349Z,1.40
2018-11-28T16:47:16.836Z,1.39
2018-11-28T16:52:21.484Z,1.42
2018-11-28T16:57:25.982Z,1.41
2018-11-28T17:02:30.569Z,1.53
2018-11-28T17:07:35.101Z,1.20
2018-11-28T17:12:39.633Z,1.37
2018-11-28T17:17:44.390Z,1.36
2018-11-28T17:22:49.595Z,1.46
2018-11-28T17:27:54.130Z,1.40
2018-11-28T17:32:58.821Z,1.42
2018-11-28T17:38:03.413Z,1.46
2018-11-28T17:43:08.779Z,1.51
2018-11-28T17:48:15.010Z,1.42
2018-11-28T17:53:38.456Z,1.51
2018-11-28T17:58:42.980Z,1.37
2018-11-28T18:03:47.629Z,1.49
2018-11-28T18:08:52.147Z,1.69
2018-11-28T18:13:56.704Z,1.81
2018-11-28T18:19:20.223Z,1.50
2018-11-28T18:24:43.854Z,1.37
2018-11-28T18:30:07.439Z,1.31
2018-11-28T18:35:12.529Z,1.28
2018-11-28T18:45:29.255Z,1.35
2018-11-28T18:50:33.900Z,1.38
2018-11-28T18:55:38.357Z,1.31
2018-11-28T19:01:03.000Z,1.30
2018-11-28T19:06:07.722Z,1.29
2018-11-28T19:11:31.295Z,1.24
2018-11-28T19:16:37.978Z,1.23
2018-11-28T19:22:24.935Z,1.32
2018-11-28T19:32:57.160Z,1.18
2018-11-28T19:38:02.595Z,1.15
2018-11-28T19:48:51.229Z,1.19
2018-11-28T19:54:15.221Z,1.13
2018-11-28T19:59:20.791Z,1.17
2018-11-28T20:04:25.961Z,1.08
2018-11-28T20:09:31.139Z,1.11
2018-11-28T20:25:42.913Z,1.04
2018-11-28T20:30:47.603Z,1.01
2018-11-28T20:35:52.386Z,0.95
2018-11-28T20:41:04.390Z,0.89
2018-11-28T20:46:09.053Z,1.04
2018-11-28T20:51:13.593Z,1.04
2018-11-28T20:56:18.203Z,0.94
2018-11-28T21:01:22.811Z,0.96
2018-11-28T21:06:27.326Z,0.91
2018-11-28T21:11:31.889Z,0.89
2018-11-28T21:16:36.456Z,0.99
2018-11-28T21:21:41.032Z,0.98
2018-11-28T21:26:45.579Z,0.95
2018-11-28T21:37:01.255Z,1.02
2018-11-28T21:42:06.264Z,0.93
2018-11-28T21:47:10.800Z,0.82
2018-11-28T21:52:15.403Z,0.85
2018-11-28T21:57:19.964Z,0.91
2018-11-28T22:02:24.531Z,0.83
2018-11-28T22:07:48.079Z,0.71
2018-11-28T22:12:52.637Z,0.85
2018-11-28T22:17:58.178Z,0.82
2018-11-28T22:23:02.679Z,0.87
2018-11-28T22:28:07.936Z,0.83
2018-11-28T22:38:42.049Z,0.86
2018-11-28T22:43:46.627Z,0.69
2018-11-28T22:48:51.180Z,0.69
2018-11-28T22:53:55.767Z,0.53
2018-11-28T22:59:00.338Z,0.76
2018-11-28T23:04:04.891Z,0.69
2018-11-28T23:09:09.954Z,0.82
2018-11-28T23:14:14.489Z,0.70
2018-11-28T23:19:19.034Z,0.84
2018-11-28T23:24:23.660Z,0.78
2018-11-28T23:29:28.214Z,0.80
2018-11-28T23:34:32.765Z,0.82
2018-11-28T23:39:37.343Z,0.83
2018-11-28T23:44:41.861Z,0.72
2018-11-28T23:49:46.422Z,0.70
2018-11-28T23:54:51.015Z,0.85
